createdAt,value
2022-10-17T00:00:53.007Z,12.86
2022-10-17T00:03:19.435Z,12.82
2022-10-17T00:05:47.724Z,12.80
2022-10-17T00:08:16.454Z,12.77
2022-10-17T00:10:42.964Z,12.77
2022-10-17T00:13:09.932Z,12.77
2022-10-17T00:15:36.368Z,12.75
2022-10-17T00:18:02.964Z,12.73
2022-10-17T00:20:30.396Z,12.72
2022-10-17T00:22:57.372Z,12.71
2022-10-17T00:25:23.875Z,12.68
2022-10-17T00:27:50.260Z,12.70
2022-10-17T00:30:17.119Z,12.70
2022-10-17T00:32:43.620Z,12.72
2022-10-17T00:35:10.314Z,12.71
2022-10-17T00:37:36.983Z,12.71
2022-10-17T00:40:05.530Z,12.70
2022-10-17T00:42:31.929Z,12.71
2022-10-17T00:45:21.698Z,12.69
2022-10-17T00:48:01.024Z,12.71
2022-10-17T00:50:28.193Z,12.70
2022-10-17T00:52:59.175Z,12.69
2022-10-17T00:55:30.904Z,12.69
2022-10-17T00:58:00.888Z,12.68
2022-10-17T01:00:27.355Z,12.66
2022-10-17T01:02:53.864Z,12.65
2022-10-17T01:05:20.781Z,12.63
2022-10-17T01:07:49.441Z,12.59
2022-10-17T01:10:16.080Z,12.56
2022-10-17T01:12:49.166Z,12.56
2022-10-17T01:15:32.080Z,12.57
2022-10-17T01:18:40.188Z,12.54
2022-10-17T01:21:27.859Z,12.53
2022-10-17T01:24:35.766Z,12.53
2022-10-17T01:27:42.243Z,12.51
2022-10-17T01:30:26.990Z,12.50
2022-10-17T01:33:07.375Z,12.49
2022-10-17T01:35:46.977Z,12.49
2022-10-17T01:38:27.224Z,12.50
2022-10-17T01:41:10.445Z,12.52
2022-10-17T01:43:46.489Z,12.51
2022-10-17T01:46:36.160Z,12.48
2022-10-17T01:49:05.711Z,12.49
2022-10-17T01:51:49.159Z,12.47
2022-10-17T01:54:27.416Z,12.48
2022-10-17T01:56:58.624Z,12.48
2022-10-17T01:59:44.214Z,12.47
2022-10-17T02:02:14.287Z,12.46
2022-10-17T02:04:41.851Z,12.47
2022-10-17T02:07:10.322Z,12.48
2022-10-17T02:09:36.799Z,12.49
2022-10-17T02:12:31.162Z,12.54
2022-10-17T02:15:29.756Z,12.57
2022-10-17T02:18:29.756Z,12.60
2022-10-17T02:21:03.656Z,12.62
2022-10-17T02:23:50.690Z,12.65
2022-10-17T02:26:33.024Z,12.72
2022-10-17T02:29:15.516Z,12.74
2022-10-17T02:31:46.880Z,12.79
2022-10-17T02:34:19.711Z,12.78
2022-10-17T02:36:51.570Z,12.78
2022-10-17T02:39:20.816Z,12.80
2022-10-17T02:41:49.260Z,12.78
2022-10-17T02:44:16.843Z,12.78
2022-10-17T02:46:49.380Z,12.80
2022-10-17T02:49:21.272Z,12.78
2022-10-17T02:51:56.795Z,12.77
2022-10-17T02:54:34.397Z,12.74
2022-10-17T02:57:26.217Z,12.71
2022-10-17T02:59:53.458Z,12.71
2022-10-17T03:02:19.886Z,12.72
2022-10-17T03:04:46.896Z,12.70
2022-10-17T03:07:13.453Z,12.71
2022-10-17T03:09:39.930Z,12.76
2022-10-17T03:12:06.409Z,12.79
2022-10-17T03:14:32.766Z,12.83
2022-10-17T03:16:59.241Z,12.90
2022-10-17T03:19:25.784Z,12.90
2022-10-17T03:21:52.232Z,12.92
2022-10-17T03:24:18.629Z,12.96
2022-10-17T03:29:11.422Z,13.04
2022-10-17T03:31:37.830Z,13.03
2022-10-17T03:34:04.345Z,13.07
2022-10-17T03:36:30.804Z,13.15
2022-10-17T03:38:57.217Z,13.20
2022-10-17T03:41:23.843Z,13.30
2022-10-17T03:43:52.905Z,13.36
2022-10-17T03:46:19.346Z,13.44
2022-10-17T03:48:45.825Z,13.47
2022-10-17T03:51:12.229Z,13.48
2022-10-17T03:53:38.702Z,13.54
2022-10-17T03:56:24.192Z,13.59
2022-10-17T03:58:50.988Z,13.56
2022-10-17T04:01:19.329Z,13.57
2022-10-17T04:03:52.159Z,13.57
2022-10-17T04:06:19.003Z,13.58
2022-10-17T04:08:45.495Z,13.59
2022-10-17T04:11:16.183Z,13.56
2022-10-17T04:13:43.471Z,13.57
2022-10-17T04:16:17.669Z,13.56
2022-10-17T04:18:44.711Z,13.58
2022-10-17T04:21:12.445Z,13.55
2022-10-17T04:23:39.791Z,13.55
2022-10-17T04:26:07.172Z,13.54
2022-10-17T04:28:34.322Z,13.54
2022-10-17T04:31:10.035Z,13.52
2022-10-17T04:33:36.494Z,13.49
2022-10-17T04:36:06.514Z,13.47
2022-10-17T04:38:33.713Z,13.45
2022-10-17T04:41:06.039Z,13.44
2022-10-17T04:43:34.354Z,13.47
2022-10-17T04:46:02.118Z,13.48
2022-10-17T04:48:29.663Z,13.51
2022-10-17T04:50:57.985Z,13.55
2022-10-17T04:53:24.878Z,13.59
2022-10-17T04:55:51.475Z,13.61
2022-10-17T04:58:18.831Z,13.62
2022-10-17T05:00:45.940Z,13.65
2022-10-17T05:03:12.629Z,13.68
2022-10-17T05:05:39.844Z,13.71
2022-10-17T05:08:07.826Z,13.74
2022-10-17T05:10:42.895Z,13.74
2022-10-17T05:13:10.197Z,13.73
2022-10-17T05:15:37.851Z,13.71
2022-10-17T05:18:05.894Z,13.70
2022-10-17T05:20:33.160Z,13.74
2022-10-17T05:23:00.361Z,13.71
2022-10-17T05:25:26.839Z,13.70
2022-10-17T05:27:53.905Z,13.70
2022-10-17T05:30:20.473Z,13.75
2022-10-17T05:32:47.006Z,13.77
2022-10-17T05:35:13.497Z,13.84
2022-10-17T05:37:39.965Z,13.88
2022-10-17T05:40:07.999Z,13.93
2022-10-17T05:42:34.437Z,13.93
2022-10-17T05:45:00.963Z,13.94
2022-10-17T05:47:27.742Z,13.94
2022-10-17T05:49:54.764Z,13.90
2022-10-17T05:52:21.165Z,13.90
2022-10-17T05:54:47.609Z,13.86
2022-10-17T05:57:14.022Z,13.86
2022-10-17T05:59:40.589Z,13.84
2022-10-17T06:02:07.026Z,13.87
2022-10-17T06:04:33.723Z,13.85
2022-10-17T06:07:00.202Z,13.85
2022-10-17T06:09:26.620Z,13.87
2022-10-17T06:11:53.127Z,13.88
2022-10-17T06:14:19.671Z,13.90
2022-10-17T06:16:46.085Z,13.91
2022-10-17T06:19:12.715Z,13.93
2022-10-17T06:21:39.086Z,13.95
2022-10-17T06:24:05.619Z,13.96
2022-10-17T06:26:32.058Z,13.98
2022-10-17T06:28:58.562Z,14.00
2022-10-17T06:31:25.207Z,14.04
2022-10-17T06:33:51.637Z,14.06
2022-10-17T06:36:18.177Z,14.07
2022-10-17T06:38:44.599Z,14.10
2022-10-17T06:41:16.328Z,14.14
2022-10-17T06:43:46.311Z,14.17
2022-10-17T06:46:18.091Z,14.19
2022-10-17T06:48:45.187Z,14.22
2022-10-17T06:51:12.360Z,14.25
2022-10-17T06:53:40.051Z,14.26
2022-10-17T06:56:08.305Z,14.28
2022-10-17T06:58:41.192Z,14.32
2022-10-17T07:01:13.202Z,14.35
2022-10-17T07:03:40.884Z,14.36
2022-10-17T07:06:08.051Z,14.35
2022-10-17T07:08:34.469Z,14.34
2022-10-17T07:11:13.270Z,14.34
2022-10-17T07:13:39.632Z,14.41
2022-10-17T07:16:06.732Z,14.42
2022-10-17T07:18:33.256Z,14.42
2022-10-17T07:20:59.730Z,14.43
2022-10-17T07:23:26.493Z,14.45
2022-10-17T07:25:53.606Z,14.45
2022-10-17T07:28:20.008Z,14.45
2022-10-17T07:30:50.627Z,14.44
2022-10-17T07:33:20.167Z,14.45
2022-10-17T07:35:46.619Z,14.45
2022-10-17T07:38:12.957Z,14.45
2022-10-17T07:40:39.407Z,14.47
2022-10-17T07:43:05.820Z,14.50
2022-10-17T07:45:32.263Z,14.50
2022-10-17T07:47:58.808Z,14.53
2022-10-17T07:50:26.088Z,14.53
2022-10-17T07:52:52.631Z,14.56
2022-10-17T07:55:19.177Z,14.59
2022-10-17T07:57:45.730Z,14.63
2022-10-17T08:00:12.741Z,14.67
2022-10-17T08:02:39.549Z,14.69
2022-10-17T08:05:06.457Z,14.69
2022-10-17T08:07:32.940Z,14.68
2022-10-17T08:09:59.592Z,14.67
2022-10-17T08:12:26.346Z,14.70
2022-10-17T08:14:52.760Z,14.79
2022-10-17T08:17:19.307Z,14.79
2022-10-17T08:19:45.812Z,14.84
2022-10-17T08:22:12.448Z,14.88
2022-10-17T08:24:38.990Z,14.91
2022-10-17T08:27:11.212Z,14.89
2022-10-17T08:29:38.664Z,14.90
2022-10-17T08:32:08.969Z,14.93
2022-10-17T08:34:36.499Z,14.95
2022-10-17T08:37:03.214Z,14.99
2022-10-17T08:39:29.794Z,14.99
2022-10-17T08:42:06.523Z,14.96
2022-10-17T08:44:43.686Z,14.99
2022-10-17T08:47:19.201Z,15.07
2022-10-17T08:49:52.410Z,15.09
2022-10-17T08:52:47.250Z,15.07
2022-10-17T08:55:37.862Z,15.12
2022-10-17T08:58:20.965Z,15.14
2022-10-17T09:01:13.071Z,15.15
2022-10-17T09:04:09.382Z,15.17
2022-10-17T09:06:42.378Z,15.16
2022-10-17T09:09:39.723Z,15.12
2022-10-17T09:12:22.121Z,15.13
2022-10-17T09:14:51.267Z,15.14
2022-10-17T09:17:39.036Z,15.16
2022-10-17T09:20:20.551Z,15.18
2022-10-17T09:23:13.170Z,15.18
2022-10-17T09:25:44.461Z,15.18
2022-10-17T09:28:13.843Z,15.21
2022-10-17T09:30:45.819Z,15.20
2022-10-17T09:33:53.396Z,15.20
2022-10-17T09:36:30.120Z,15.20
2022-10-17T09:38:59.690Z,15.20
2022-10-17T09:41:46.920Z,15.20
2022-10-17T09:44:32.666Z,15.16
2022-10-17T09:47:24.361Z,15.16
2022-10-17T09:49:51.334Z,15.18
2022-10-17T09:52:25.400Z,15.22
2022-10-17T09:54:55.650Z,15.27
2022-10-17T09:57:22.157Z,15.33
2022-10-17T10:00:00.471Z,15.38
2022-10-17T10:02:29.444Z,15.41
2022-10-17T10:05:06.367Z,15.45
2022-10-17T10:07:36.413Z,15.48
2022-10-17T10:10:06.435Z,15.47
2022-10-17T10:12:36.436Z,15.47
2022-10-17T10:15:38.690Z,15.49
2022-10-17T10:18:25.051Z,15.55
2022-10-17T10:21:07.137Z,15.59
2022-10-17T10:23:34.431Z,15.63
2022-10-17T10:26:16.779Z,15.62
2022-10-17T10:28:54.927Z,15.61
2022-10-17T10:31:37.385Z,15.60
2022-10-17T10:34:20.724Z,15.57
2022-10-17T10:37:07.615Z,15.56
2022-10-17T10:39:43.054Z,15.56
2022-10-17T10:42:21.587Z,15.60
2022-10-17T10:44:49.419Z,15.64
2022-10-17T10:47:26.218Z,15.70
2022-10-17T10:50:07.971Z,15.72
2022-10-17T10:52:50.273Z,15.71
2022-10-17T10:55:26.093Z,15.72
2022-10-17T10:57:58.741Z,15.74
2022-10-17T11:00:27.899Z,15.74
2022-10-17T11:03:19.482Z,15.80
2022-10-17T11:06:18.961Z,15.86
2022-10-17T11:09:13.277Z,15.92
2022-10-17T11:11:48.170Z,16.00
2022-10-17T11:14:23.567Z,16.01
2022-10-17T11:17:02.171Z,16.05
2022-10-17T11:19:32.295Z,16.06
2022-10-17T11:22:10.851Z,16.08
2022-10-17T11:24:43.248Z,16.09
2022-10-17T11:27:09.848Z,16.02
2022-10-17T11:29:40.272Z,15.97
2022-10-17T11:32:22.887Z,15.91
2022-10-17T11:34:53.471Z,15.85
2022-10-17T11:37:32.913Z,15.81
2022-10-17T11:40:14.661Z,15.77
2022-10-17T11:42:56.881Z,15.77
2022-10-17T11:45:27.048Z,15.77
2022-10-17T11:48:01.670Z,15.77
2022-10-17T11:53:24.700Z,15.84
2022-10-17T11:55:54.197Z,15.90
2022-10-17T11:58:39.472Z,15.92
2022-10-17T12:01:25.565Z,15.99
2022-10-17T12:03:59.331Z,16.03
2022-10-17T12:07:05.567Z,16.12
2022-10-17T12:09:47.798Z,16.17
2022-10-17T12:12:32.499Z,16.16
2022-10-17T12:15:26.076Z,16.19
2022-10-17T12:18:03.406Z,16.24
2022-10-17T12:20:37.207Z,16.28
2022-10-17T12:23:19.257Z,16.31
2022-10-17T12:25:56.985Z,16.24
2022-10-17T12:28:30.800Z,16.24
2022-10-17T12:31:17.226Z,16.22
2022-10-17T12:33:46.510Z,16.23
2022-10-17T12:36:20.960Z,16.21
2022-10-17T12:39:13.539Z,16.18
2022-10-17T12:41:40.165Z,16.20
2022-10-17T12:44:12.869Z,16.20
2022-10-17T12:46:49.466Z,16.22
2022-10-17T12:49:25.935Z,16.19
2022-10-17T12:52:11.003Z,16.15
2022-10-17T12:54:48.087Z,16.11
2022-10-17T12:57:44.875Z,16.11
2022-10-17T13:00:22.061Z,16.12
2022-10-17T13:02:52.182Z,16.09
2022-10-17T13:05:28.453Z,16.11
2022-10-17T13:07:56.385Z,16.13
2022-10-17T13:10:32.455Z,16.13
2022-10-17T13:13:11.016Z,16.21
2022-10-17T13:15:37.419Z,16.28
2022-10-17T13:18:04.107Z,16.30
2022-10-17T13:20:32.349Z,16.23
2022-10-17T13:22:59.241Z,16.24
2022-10-17T13:25:27.248Z,16.25
2022-10-17T13:28:06.357Z,16.31
2022-10-17T13:30:35.306Z,16.33
2022-10-17T13:33:02.969Z,16.37
2022-10-17T13:38:28.267Z,16.36
2022-10-17T13:41:01.670Z,16.43
2022-10-17T13:43:29.390Z,16.48
2022-10-17T13:46:19.231Z,16.53
2022-10-17T13:48:50.525Z,16.53
2022-10-17T13:51:17.038Z,16.49
2022-10-17T13:53:44.430Z,16.47
2022-10-17T13:56:27.725Z,16.45
2022-10-17T13:59:08.145Z,16.44
2022-10-17T14:01:34.840Z,16.39
2022-10-17T14:04:08.827Z,16.41
2022-10-17T14:06:48.003Z,16.41
2022-10-17T14:09:22.435Z,16.43
2022-10-17T14:12:02.618Z,16.45
2022-10-17T14:14:30.451Z,16.45
2022-10-17T14:17:13.382Z,16.44
2022-10-17T14:19:40.026Z,16.43
2022-10-17T14:22:22.050Z,16.43
2022-10-17T14:24:53.326Z,16.46
2022-10-17T14:27:48.499Z,16.48
2022-10-17T14:30:51.805Z,16.55
2022-10-17T14:33:22.214Z,16.56
2022-10-17T14:35:54.066Z,16.59
2022-10-17T14:38:21.624Z,16.66
2022-10-17T14:41:43.810Z,16.67
2022-10-17T14:44:07.125Z,16.75
2022-10-17T14:46:37.650Z,16.79
2022-10-17T14:49:28.598Z,16.80
2022-10-17T14:52:18.540Z,16.79
2022-10-17T14:54:49.367Z,16.74
2022-10-17T14:57:17.565Z,16.67
2022-10-17T14:59:59.390Z,16.57
2022-10-17T15:02:27.893Z,16.51
2022-10-17T15:04:54.888Z,16.46
2022-10-17T15:07:22.191Z,16.41
2022-10-17T15:09:50.633Z,16.41
2022-10-17T15:12:19.728Z,16.40
2022-10-17T15:14:48.400Z,16.39
2022-10-17T15:17:20.498Z,16.39
2022-10-17T15:19:47.782Z,16.35
2022-10-17T15:22:16.005Z,16.33
2022-10-17T15:24:42.929Z,16.35
2022-10-17T15:27:19.927Z,16.33
2022-10-17T15:29:46.936Z,16.32
2022-10-17T15:32:14.121Z,16.31
2022-10-17T15:34:40.901Z,16.30
2022-10-17T15:37:16.252Z,16.29
2022-10-17T15:39:42.733Z,16.24
2022-10-17T15:42:11.879Z,16.22
2022-10-17T15:44:38.349Z,16.16
2022-10-17T15:47:05.237Z,16.11
2022-10-17T15:49:31.615Z,16.09
2022-10-17T15:51:58.068Z,16.03
2022-10-17T15:54:24.417Z,15.98
2022-10-17T15:56:54.808Z,15.94
2022-10-17T15:59:25.729Z,15.88
2022-10-17T16:01:52.214Z,15.83
2022-10-17T17:09:16.047Z,14.96
2022-10-17T17:15:27.798Z,14.94
2022-10-17T17:21:58.691Z,14.89
2022-10-17T17:28:17.144Z,14.86
2022-10-17T17:31:01.281Z,14.83
2022-10-17T17:33:29.869Z,14.82
2022-10-17T19:09:35.280Z,14.44
2022-10-17T19:12:01.982Z,14.44
2022-10-17T19:14:28.660Z,14.42
2022-10-17T19:16:55.090Z,14.42
2022-10-17T19:19:24.261Z,14.41
2022-10-17T19:21:51.696Z,14.42
2022-10-17T19:24:21.327Z,14.42
2022-10-17T19:26:50.328Z,14.38
2022-10-17T19:29:18.126Z,14.34
2022-10-17T19:31:45.178Z,14.31
2022-10-17T19:34:12.483Z,14.26
2022-10-17T19:36:39.177Z,14.25
2022-10-17T19:39:08.555Z,14.22
2022-10-17T19:41:36.330Z,14.21
2022-10-17T19:44:03.236Z,14.20
2022-10-17T19:46:30.707Z,14.19
2022-10-17T19:48:58.077Z,14.18
2022-10-17T19:51:25.072Z,14.15
2022-10-17T19:53:52.850Z,14.14
2022-10-17T19:56:21.129Z,14.13
2022-10-17T19:58:48.659Z,14.13
2022-10-17T20:01:17.723Z,14.12
2022-10-17T20:03:44.441Z,14.10
2022-10-17T20:06:11.357Z,14.08
2022-10-17T20:08:38.692Z,14.10
2022-10-17T20:11:07.072Z,14.08
2022-10-17T20:13:35.336Z,14.07
2022-10-17T20:16:02.463Z,14.06
2022-10-17T20:18:29.003Z,14.05
2022-10-17T20:20:55.536Z,14.03
2022-10-17T20:23:22.477Z,14.03
2022-10-17T20:26:06.809Z,14.03
2022-10-17T20:28:45.887Z,14.03
2022-10-17T20:31:13.366Z,14.03
2022-10-17T20:33:41.439Z,14.04
2022-10-17T20:36:10.160Z,14.05
2022-10-17T20:38:36.823Z,14.08
2022-10-17T20:41:09.556Z,14.08
2022-10-17T20:43:37.216Z,14.09
2022-10-17T20:46:22.030Z,14.08
2022-10-17T20:48:54.460Z,14.04
2022-10-17T20:51:21.376Z,14.02
2022-10-17T20:53:48.819Z,14.02
2022-10-17T20:56:28.957Z,13.99
2022-10-17T20:59:13.126Z,14.00
2022-10-17T21:01:39.643Z,13.98
2022-10-17T21:04:33.261Z,13.98
2022-10-17T21:06:53.660Z,13.98
2022-10-17T21:09:20.703Z,13.98
2022-10-17T21:11:48.299Z,14.02
2022-10-17T21:14:16.654Z,14.03
2022-10-17T21:16:43.316Z,14.02
2022-10-17T21:19:24.793Z,14.00
2022-10-17T21:21:51.352Z,14.01
2022-10-17T21:24:21.269Z,14.04
2022-10-17T21:26:55.427Z,14.07
2022-10-17T21:29:22.853Z,14.03
2022-10-17T21:31:49.555Z,13.98
2022-10-17T21:34:19.976Z,13.90
2022-10-17T21:36:46.750Z,13.84
2022-10-17T21:39:14.381Z,13.80
2022-10-17T21:41:41.635Z,13.81
2022-10-17T21:44:13.636Z,13.77
2022-10-17T21:46:40.578Z,13.76
2022-10-17T21:49:07.289Z,13.78
2022-10-17T21:51:33.673Z,13.75
2022-10-17T21:54:00.329Z,13.70
2022-10-17T21:56:30.476Z,13.63
2022-10-17T21:58:58.288Z,13.60
2022-10-17T22:01:27.691Z,13.56
2022-10-17T22:03:56.860Z,13.55
2022-10-17T22:06:39.764Z,13.54
2022-10-17T22:09:14.404Z,13.53
2022-10-17T22:11:41.361Z,13.50
2022-10-17T22:14:12.418Z,13.47
2022-10-17T22:16:39.407Z,13.42
2022-10-17T22:19:07.920Z,13.39
2022-10-17T22:21:36.170Z,13.40
2022-10-17T22:24:05.891Z,13.38
2022-10-17T22:26:34.678Z,13.40
2022-10-17T22:29:01.692Z,13.40
2022-10-17T22:31:28.100Z,13.39
2022-10-17T22:33:54.540Z,13.38
2022-10-17T22:36:21.158Z,13.37
2022-10-17T22:38:48.391Z,13.34
2022-10-17T22:41:14.754Z,13.30
2022-10-17T22:43:48.238Z,13.29
2022-10-17T22:46:18.531Z,13.28
2022-10-17T22:48:44.947Z,13.25
2022-10-17T22:51:12.294Z,13.24
2022-10-17T22:53:38.761Z,13.22
2022-10-17T22:56:07.968Z,13.21
2022-10-17T22:58:35.592Z,13.20
2022-10-17T23:01:02.973Z,13.18
2022-10-17T23:03:31.611Z,13.12
2022-10-17T23:05:58.713Z,13.10
2022-10-17T23:08:25.984Z,13.10
2022-10-17T23:10:52.895Z,13.09
2022-10-17T23:13:21.239Z,13.08
2022-10-17T23:15:52.552Z,13.08
2022-10-17T23:18:19.974Z,13.07
2022-10-17T23:20:46.475Z,13.07
2022-10-17T23:23:13.336Z,13.05
2022-10-17T23:25:39.919Z,13.04
2022-10-17T23:28:08.106Z,13.01
2022-10-17T23:30:35.323Z,13.00
2022-10-17T23:33:02.195Z,12.98
2022-10-17T23:35:28.832Z,12.99
2022-10-17T23:37:55.383Z,12.98
2022-10-17T23:40:21.884Z,12.98
2022-10-17T23:42:48.291Z,12.98
2022-10-17T23:45:14.765Z,13.00
2022-10-17T23:47:41.928Z,12.97
2022-10-17T23:50:08.434Z,12.97
2022-10-17T23:52:34.847Z,12.95
2022-10-17T23:55:01.232Z,12.94
2022-10-17T23:57:27.856Z,12.90
2022-10-17T23:59:55.327Z,12.89
